Time;durP1;ratioP1;P1;durP2;ratioP2;P2;SDS_P1;SDS_P2;PMS_P1;PMS_P2;Temp;Humidity;BMP_temperature;BMP_pressure;BME280_temperature;BME280_humidity;BME280_pressure;Samples;Min_cycle;Max_cycle;Signal;HPM_P1;HPM_P2
2021/01/30 00:00:16;;;;;;;2.55;1.30;;;;;;;18.81;47.70;99068.63;;;;-57
2021/01/30 00:03:16;;;;;;;1.47;1.21;;;;;;;18.77;47.70;99067.00;;;;-57
2021/01/30 00:06:16;;;;;;;1.37;1.27;;;;;;;18.76;47.70;99070.13;;;;-57
2021/01/30 00:09:16;;;;;;;1.94;1.16;;;;;;;18.73;47.71;99071.11;;;;-54
2021/01/30 00:12:16;;;;;;;1.51;1.41;;;;;;;18.72;47.71;99076.24;;;;-54
2021/01/30 00:15:16;;;;;;;2.69;1.35;;;;;;;18.69;47.75;99072.88;;;;-54
2021/01/30 00:18:16;;;;;;;1.54;1.21;;;;;;;18.68;47.75;99074.36;;;;-54
2021/01/30 00:21:16;;;;;;;1.78;1.25;;;;;;;18.66;47.71;99072.20;;;;-54
2021/01/30 00:24:16;;;;;;;1.29;1.19;;;;;;;18.63;47.76;99082.92;;;;-53
2021/01/30 00:27:16;;;;;;;1.51;1.29;;;;;;;18.62;47.77;99091.06;;;;-53
2021/01/30 00:30:16;;;;;;;1.27;1.17;;;;;;;18.60;47.74;99083.64;;;;-54
2021/01/30 00:33:16;;;;;;;1.32;1.22;;;;;;;18.57;47.76;99084.96;;;;-54
2021/01/30 00:36:16;;;;;;;1.47;1.15;;;;;;;18.56;47.82;99077.76;;;;-54
2021/01/30 00:39:16;;;;;;;1.29;1.18;;;;;;;18.54;47.82;99078.27;;;;-57
2021/01/30 00:42:16;;;;;;;1.69;1.37;;;;;;;18.52;47.84;99075.27;;;;-58
2021/01/30 00:45:16;;;;;;;1.43;1.29;;;;;;;18.52;47.84;99062.88;;;;-57
2021/01/30 00:48:16;;;;;;;1.32;1.22;;;;;;;18.50;47.86;99066.31;;;;-58
2021/01/30 00:51:16;;;;;;;1.31;1.21;;;;;;;18.48;47.86;99069.33;;;;-58
2021/01/30 00:54:16;;;;;;;1.32;1.21;;;;;;;18.46;47.85;99076.80;;;;-57
2021/01/30 00:57:16;;;;;;;1.43;1.29;;;;;;;18.45;47.91;99079.84;;;;-58
2021/01/30 01:00:16;;;;;;;1.56;1.25;;;;;;;18.43;47.88;99083.02;;;;-58
2021/01/30 01:03:16;;;;;;;1.30;1.20;;;;;;;18.42;47.91;99080.26;;;;-58
2021/01/30 01:06:16;;;;;;;1.19;1.11;;;;;;;18.41;47.88;99085.31;;;;-57
2021/01/30 01:09:16;;;;;;;1.19;1.09;;;;;;;18.39;47.92;99082.41;;;;-57
2021/01/30 01:12:16;;;;;;;1.10;1.07;;;;;;;18.37;47.90;99080.48;;;;-57
2021/01/30 01:15:16;;;;;;;1.31;1.15;;;;;;;18.36;47.91;99077.75;;;;-54
2021/01/30 01:18:16;;;;;;;1.20;1.10;;;;;;;18.35;47.91;99082.78;;;;-55
2021/01/30 01:21:16;;;;;;;1.24;1.14;;;;;;;18.33;47.93;99082.89;;;;-54
2021/01/30 01:24:16;;;;;;;1.16;1.06;;;;;;;18.32;47.94;99081.11;;;;-52
2021/01/30 01:27:16;;;;;;;1.17;1.07;;;;;;;18.30;47.92;99072.77;;;;-52
2021/01/30 01:30:16;;;;;;;1.36;1.22;;;;;;;18.27;47.95;99069.64;;;;-52
2021/01/30 01:33:16;;;;;;;1.28;1.18;;;;;;;18.27;47.97;99072.41;;;;-53
2021/01/30 01:36:16;;;;;;;1.15;1.05;;;;;;;18.25;47.96;99070.47;;;;-52
2021/01/30 01:39:16;;;;;;;0.93;0.93;;;;;;;18.24;47.98;99074.31;;;;-53
2021/01/30 01:42:16;;;;;;;1.23;1.13;;;;;;;18.22;47.97;99069.80;;;;-52
2021/01/30 01:45:16;;;;;;;1.09;1.00;;;;;;;18.21;47.98;99072.55;;;;-52
2021/01/30 01:48:16;;;;;;;0.95;0.95;;;;;;;18.20;48.02;99067.38;;;;-52
2021/01/30 01:51:16;;;;;;;1.24;1.14;;;;;;;18.19;48.01;99063.09;;;;-52
2021/01/30 01:54:16;;;;;;;0.94;0.94;;;;;;;18.17;47.98;99059.77;;;;-53
2021/01/30 01:57:16;;;;;;;1.65;1.20;;;;;;;18.16;48.03;99063.28;;;;-53
2021/01/30 02:00:16;;;;;;;1.15;1.06;;;;;;;18.15;48.04;99063.13;;;;-52
2021/01/30 02:03:16;;;;;;;1.07;1.00;;;;;;;18.13;48.04;99064.44;;;;-52
2021/01/30 02:06:16;;;;;;;1.09;1.00;;;;;;;18.13;48.02;99060.56;;;;-52
2021/01/30 02:09:16;;;;;;;1.20;1.10;;;;;;;18.11;48.04;99058.64;;;;-53
2021/01/30 02:12:17;;;;;;;1.09;1.00;;;;;;;18.10;48.06;99049.48;;;;-52
2021/01/30 02:15:16;;;;;;;0.95;0.95;;;;;;;18.08;48.04;99045.63;;;;-53
2021/01/30 02:18:16;;;;;;;1.09;1.02;;;;;;;18.07;48.06;99045.53;;;;-52
2021/01/30 02:21:16;;;;;;;1.19;1.09;;;;;;;18.06;48.09;99044.90;;;;-52
2021/01/30 02:25:16;;;;;;;1.00;0.96;;;;;;;18.05;48.06;99044.17;;;;-53
2021/01/30 02:28:16;;;;;;;1.33;1.10;;;;;;;18.03;48.08;99049.38;;;;-54
2021/01/30 02:31:16;;;;;;;1.20;1.10;;;;;;;18.03;48.08;99040.97;;;;-54
2021/01/30 02:35:16;;;;;;;1.47;1.20;;;;;;;18.01;48.08;99037.58;;;;-54
2021/01/30 02:38:16;;;;;;;1.15;1.05;;;;;;;17.99;48.09;99035.41;;;;-54
2021/01/30 02:41:16;;;;;;;1.59;1.10;;;;;;;17.97;48.13;99033.23;;;;-54
2021/01/30 02:44:16;;;;;;;1.20;1.10;;;;;;;17.96;48.12;99033.91;;;;-54
2021/01/30 02:47:16;;;;;;;1.02;1.02;;;;;;;17.95;48.15;99038.45;;;;-54
2021/01/30 02:50:16;;;;;;;1.20;1.10;;;;;;;17.94;48.11;99035.53;;;;-53
2021/01/30 02:53:16;;;;;;;1.28;1.18;;;;;;;17.94;48.07;99031.09;;;;-54
2021/01/30 02:56:16;;;;;;;1.07;1.06;;;;;;;17.92;48.16;99023.73;;;;-54
2021/01/30 02:59:16;;;;;;;1.24;1.10;;;;;;;17.91;48.17;99017.52;;;;-54
2021/01/30 03:02:16;;;;;;;1.20;1.00;;;;;;;17.90;48.15;99010.72;;;;-54
2021/01/30 03:05:16;;;;;;;1.07;0.99;;;;;;;17.88;48.17;99010.56;;;;-54
2021/01/30 03:08:16;;;;;;;1.30;1.00;;;;;;;17.88;48.16;99009.84;;;;-54
2021/01/30 03:11:16;;;;;;;1.20;1.10;;;;;;;17.87;48.12;99002.48;;;;-54
2021/01/30 03:14:16;;;;;;;0.80;0.80;;;;;;;17.86;48.13;99002.64;;;;-53
2021/01/30 03:17:16;;;;;;;1.20;1.10;;;;;;;17.85;48.19;99003.88;;;;-54
2021/01/30 03:20:16;;;;;;;1.21;1.10;;;;;;;17.84;48.18;99004.93;;;;-54
2021/01/30 03:23:16;;;;;;;1.12;1.02;;;;;;;17.83;48.19;99008.34;;;;-54
2021/01/30 03:26:16;;;;;;;0.91;0.90;;;;;;;17.82;48.15;99010.44;;;;-54
2021/01/30 03:29:16;;;;;;;1.17;1.07;;;;;;;17.82;48.17;99009.95;;;;-55
2021/01/30 03:32:18;;;;;;;1.11;1.01;;;;;;;17.81;48.18;99006.08;;;;-55
2021/01/30 03:35:16;;;;;;;0.98;0.95;;;;;;;17.80;48.15;99003.72;;;;-54
2021/01/30 03:38:16;;;;;;;0.91;0.91;;;;;;;17.79;48.16;99000.50;;;;-54
2021/01/30 03:41:16;;;;;;;0.85;0.85;;;;;;;17.78;48.19;99005.22;;;;-54
2021/01/30 03:44:16;;;;;;;1.33;1.01;;;;;;;17.77;48.15;99000.13;;;;-54
2021/01/30 03:47:16;;;;;;;1.11;0.97;;;;;;;17.76;48.19;99002.14;;;;-54
2021/01/30 03:50:16;;;;;;;0.90;0.90;;;;;;;17.75;48.18;98992.69;;;;-54
2021/01/30 03:53:16;;;;;;;1.08;0.98;;;;;;;17.75;48.19;98988.39;;;;-54
2021/01/30 03:56:16;;;;;;;0.93;0.91;;;;;;;17.74;48.18;98983.78;;;;-54
2021/01/30 03:59:16;;;;;;;0.80;0.80;;;;;;;17.73;48.16;98983.72;;;;-54
2021/01/30 04:02:16;;;;;;;0.86;0.86;;;;;;;17.72;48.21;98980.88;;;;-54
2021/01/30 04:05:16;;;;;;;0.93;0.93;;;;;;;17.72;48.15;98976.67;;;;-54
2021/01/30 04:08:16;;;;;;;0.99;0.98;;;;;;;17.71;48.17;98971.01;;;;-54
2021/01/30 04:11:16;;;;;;;1.06;1.04;;;;;;;17.70;48.15;98972.15;;;;-54
2021/01/30 04:14:16;;;;;;;1.18;1.08;;;;;;;17.69;48.16;98967.86;;;;-54
2021/01/30 04:17:16;;;;;;;1.00;1.00;;;;;;;17.67;48.19;98963.19;;;;-54
2021/01/30 04:20:16;;;;;;;0.93;0.93;;;;;;;17.66;48.20;98955.84;;;;-54
2021/01/30 04:23:16;;;;;;;0.98;0.98;;;;;;;17.66;48.19;98954.06;;;;-54
2021/01/30 04:26:16;;;;;;;0.79;0.79;;;;;;;17.65;48.19;98948.87;;;;-55
2021/01/30 04:29:16;;;;;;;0.93;0.93;;;;;;;17.64;48.20;98947.28;;;;-52
2021/01/30 04:32:16;;;;;;;0.88;0.88;;;;;;;17.63;48.19;98953.99;;;;-52
2021/01/30 04:35:16;;;;;;;1.13;1.03;;;;;;;17.63;48.17;98949.47;;;;-52
2021/01/30 04:38:16;;;;;;;0.92;0.92;;;;;;;17.62;48.20;98954.09;;;;-52
2021/01/30 04:41:16;;;;;;;1.00;0.99;;;;;;;17.61;48.18;98953.86;;;;-53
2021/01/30 04:44:16;;;;;;;0.89;0.89;;;;;;;17.61;48.23;98956.69;;;;-53
2021/01/30 04:47:16;;;;;;;0.80;0.80;;;;;;;17.59;48.23;98955.41;;;;-53
2021/01/30 04:50:16;;;;;;;1.03;0.91;;;;;;;17.58;48.19;98950.97;;;;-54
2021/01/30 04:53:16;;;;;;;0.92;0.87;;;;;;;17.59;48.19;98944.89;;;;-53
2021/01/30 04:56:16;;;;;;;0.97;0.91;;;;;;;17.57;48.20;98944.48;;;;-55
2021/01/30 04:59:16;;;;;;;0.93;0.92;;;;;;;17.57;48.23;98940.21;;;;-53
2021/01/30 05:02:16;;;;;;;0.95;0.95;;;;;;;17.56;48.23;98940.15;;;;-54
2021/01/30 05:05:16;;;;;;;0.87;0.87;;;;;;;17.56;48.21;98936.83;;;;-55
2021/01/30 05:08:16;;;;;;;0.90;0.90;;;;;;;17.54;48.20;98936.43;;;;-54
2021/01/30 05:11:16;;;;;;;0.86;0.86;;;;;;;17.54;48.26;98933.20;;;;-54
2021/01/30 05:14:16;;;;;;;0.87;0.87;;;;;;;17.53;48.20;98931.98;;;;-54
2021/01/30 05:17:16;;;;;;;0.93;0.93;;;;;;;17.53;48.26;98934.66;;;;-54
2021/01/30 05:20:16;;;;;;;1.01;0.95;;;;;;;17.52;48.21;98935.31;;;;-54
2021/01/30 05:23:16;;;;;;;1.23;1.13;;;;;;;17.51;48.21;98927.88;;;;-54
2021/01/30 05:26:16;;;;;;;0.91;0.91;;;;;;;17.51;48.22;98929.57;;;;-54
2021/01/30 05:29:16;;;;;;;0.86;0.84;;;;;;;17.50;48.22;98925.70;;;;-53
2021/01/30 05:32:16;;;;;;;0.79;0.79;;;;;;;17.49;48.32;98923.04;;;;-54
2021/01/30 05:35:16;;;;;;;0.97;0.97;;;;;;;17.49;48.24;98922.88;;;;-53
2021/01/30 05:38:16;;;;;;;0.90;0.90;;;;;;;17.48;48.26;98929.05;;;;-54
2021/01/30 05:41:16;;;;;;;0.83;0.83;;;;;;;17.48;48.23;98925.00;;;;-53
2021/01/30 05:44:16;;;;;;;1.11;0.99;;;;;;;17.46;48.27;98924.69;;;;-54
2021/01/30 05:47:16;;;;;;;0.97;0.90;;;;;;;17.45;48.21;98917.42;;;;-54
2021/01/30 05:50:16;;;;;;;0.90;0.90;;;;;;;17.45;48.25;98919.52;;;;-54
2021/01/30 05:53:16;;;;;;;0.97;0.90;;;;;;;17.45;48.24;98923.89;;;;-54
2021/01/30 05:56:16;;;;;;;0.87;0.87;;;;;;;17.43;48.27;98921.16;;;;-54
2021/01/30 05:59:16;;;;;;;0.95;0.95;;;;;;;17.43;48.22;98920.67;;;;-54
2021/01/30 06:02:16;;;;;;;0.87;0.87;;;;;;;17.42;48.23;98908.63;;;;-54
2021/01/30 06:05:16;;;;;;;1.21;1.11;;;;;;;17.42;48.18;98905.63;;;;-54
2021/01/30 06:08:16;;;;;;;1.01;0.95;;;;;;;17.41;48.23;98903.04;;;;-54
2021/01/30 06:11:16;;;;;;;0.89;0.87;;;;;;;17.40;48.28;98900.87;;;;-54
2021/01/30 06:14:16;;;;;;;1.15;0.91;;;;;;;17.40;48.22;98901.27;;;;-54
2021/01/30 06:17:16;;;;;;;0.82;0.82;;;;;;;17.40;48.24;98902.41;;;;-53
2021/01/30 06:20:16;;;;;;;0.83;0.83;;;;;;;17.40;48.25;98904.26;;;;-57
2021/01/30 06:23:16;;;;;;;0.87;0.87;;;;;;;17.40;48.21;98907.17;;;;-54
2021/01/30 06:26:16;;;;;;;1.60;0.92;;;;;;;17.42;48.20;98905.95;;;;-54
2021/01/30 06:29:16;;;;;;;0.80;0.80;;;;;;;17.43;48.23;98902.38;;;;-54
2021/01/30 06:32:16;;;;;;;3.59;1.56;;;;;;;17.39;48.23;98894.98;;;;-55
2021/01/30 06:35:16;;;;;;;3.16;1.45;;;;;;;17.38;48.24;98896.58;;;;-56
2021/01/30 06:38:16;;;;;;;3.93;1.69;;;;;;;17.38;48.13;98895.70;;;;-58
2021/01/30 06:41:16;;;;;;;4.08;1.78;;;;;;;17.37;48.08;98890.79;;;;-57
2021/01/30 06:44:16;;;;;;;3.87;1.81;;;;;;;17.35;48.20;98890.63;;;;-58
2021/01/30 06:47:16;;;;;;;5.99;1.90;;;;;;;17.34;48.11;98889.51;;;;-58
2021/01/30 06:50:16;;;;;;;5.37;1.93;;;;;;;17.34;48.14;98884.90;;;;-58
2021/01/30 06:53:16;;;;;;;7.11;2.16;;;;;;;17.25;48.03;98883.38;;;;-55
2021/01/30 06:56:16;;;;;;;5.93;2.47;;;;;;;17.17;48.16;98881.58;;;;-57
2021/01/30 06:59:16;;;;;;;6.09;2.38;;;;;;;17.13;48.28;98875.88;;;;-54
2021/01/30 07:02:16;;;;;;;4.66;2.29;;;;;;;17.06;48.30;98877.66;;;;-53
2021/01/30 07:05:16;;;;;;;6.49;2.51;;;;;;;16.98;48.45;98878.29;;;;-53
2021/01/30 07:08:16;;;;;;;6.73;2.49;;;;;;;16.93;48.65;98875.73;;;;-54
2021/01/30 07:11:16;;;;;;;11.16;2.66;;;;;;;16.95;48.86;98877.48;;;;-55
2021/01/30 07:15:16;;;;;;;6.51;2.39;;;;;;;17.08;48.79;98867.09;;;;-54
2021/01/30 07:18:16;;;;;;;5.85;2.13;;;;;;;17.16;48.56;98861.99;;;;-53
2021/01/30 07:21:16;;;;;;;7.55;2.41;;;;;;;17.21;48.66;98862.37;;;;-51
2021/01/30 07:24:16;;;;;;;6.54;2.25;;;;;;;17.27;48.85;98854.30;;;;-52
2021/01/30 07:27:16;;;;;;;6.49;2.29;;;;;;;17.31;48.77;98853.20;;;;-52
2021/01/30 07:30:16;;;;;;;5.36;2.06;;;;;;;17.37;48.83;98852.65;;;;-53
2021/01/30 07:33:16;;;;;;;4.99;2.16;;;;;;;17.42;48.81;98841.73;;;;-50
2021/01/30 07:36:16;;;;;;;5.46;2.17;;;;;;;17.50;48.83;98844.09;;;;-52
2021/01/30 07:39:16;;;;;;;4.63;2.18;;;;;;;17.53;48.61;98835.52;;;;-52
2021/01/30 07:42:16;;;;;;;3.63;1.91;;;;;;;17.58;48.58;98838.06;;;;-52
2021/01/30 07:45:16;;;;;;;4.55;1.95;;;;;;;17.63;48.47;98831.21;;;;-51
2021/01/30 07:48:16;;;;;;;4.02;1.71;;;;;;;17.66;48.40;98831.34;;;;-52
2021/01/30 07:51:16;;;;;;;4.55;1.81;;;;;;;17.70;48.31;98832.34;;;;-51
2021/01/30 07:54:16;;;;;;;4.66;1.87;;;;;;;17.74;48.34;98833.00;;;;-51
2021/01/30 07:57:16;;;;;;;3.41;1.81;;;;;;;17.78;48.31;98837.25;;;;-52
2021/01/30 08:01:16;;;;;;;3.73;1.81;;;;;;;17.82;48.33;98836.64;;;;-52
2021/01/30 08:04:16;;;;;;;4.27;1.83;;;;;;;17.84;48.23;98832.49;;;;-52
2021/01/30 08:08:16;;;;;;;2.50;1.60;;;;;;;17.89;48.25;98837.56;;;;-51
2021/01/30 08:11:16;;;;;;;2.62;1.69;;;;;;;17.90;48.18;98833.48;;;;-53
2021/01/30 08:14:16;;;;;;;5.12;1.99;;;;;;;17.93;48.77;98824.61;;;;-58
2021/01/30 08:17:16;;;;;;;4.31;2.05;;;;;;;17.96;48.80;98824.64;;;;-55
2021/01/30 08:20:16;;;;;;;3.55;1.91;;;;;;;17.99;49.27;98827.13;;;;-48
2021/01/30 08:23:16;;;;;;;4.65;2.03;;;;;;;18.03;49.08;98829.66;;;;-44
2021/01/30 08:26:16;;;;;;;5.09;1.86;;;;;;;18.06;49.00;98830.59;;;;-50
2021/01/30 08:29:16;;;;;;;3.79;2.17;;;;;;;18.10;49.45;98828.13;;;;-57
2021/01/30 08:32:16;;;;;;;3.61;1.84;;;;;;;18.13;49.26;98822.53;;;;-60
2021/01/30 08:35:16;;;;;;;4.39;1.80;;;;;;;18.16;49.37;98822.51;;;;-59
2021/01/30 08:38:16;;;;;;;5.55;1.94;;;;;;;18.19;49.22;98821.48;;;;-52
2021/01/30 08:41:16;;;;;;;4.20;1.99;;;;;;;18.23;48.78;98826.22;;;;-52
2021/01/30 08:44:16;;;;;;;4.68;1.90;;;;;;;18.25;48.80;98823.66;;;;-57
2021/01/30 08:47:16;;;;;;;4.23;2.02;;;;;;;18.28;48.30;98824.26;;;;-54
2021/01/30 08:50:16;;;;;;;4.29;1.90;;;;;;;18.31;48.81;98819.30;;;;-49
2021/01/30 08:53:16;;;;;;;4.35;2.00;;;;;;;18.33;49.29;98821.05;;;;-51
2021/01/30 08:56:16;;;;;;;3.45;1.90;;;;;;;18.35;49.21;98824.89;;;;-59
2021/01/30 08:59:16;;;;;;;3.78;2.06;;;;;;;18.40;49.27;98824.08;;;;-56
2021/01/30 09:02:16;;;;;;;3.67;2.09;;;;;;;18.41;48.74;98819.70;;;;-51
2021/01/30 09:05:16;;;;;;;4.35;1.94;;;;;;;18.43;48.76;98818.85;;;;-51
2021/01/30 09:08:16;;;;;;;4.93;2.05;;;;;;;18.44;48.45;98819.58;;;;-51
2021/01/30 09:11:16;;;;;;;3.09;1.70;;;;;;;18.45;48.30;98819.06;;;;-55
2021/01/30 09:14:16;;;;;;;4.00;2.01;;;;;;;18.47;48.46;98814.73;;;;-58
2021/01/30 09:17:16;;;;;;;3.63;1.84;;;;;;;18.50;48.73;98815.41;;;;-59
2021/01/30 09:20:16;;;;;;;3.08;1.74;;;;;;;18.54;48.58;98809.61;;;;-58
2021/01/30 09:23:16;;;;;;;3.01;1.80;;;;;;;18.55;48.66;98808.53;;;;-55
2021/01/30 09:26:16;;;;;;;3.84;1.72;;;;;;;18.58;48.67;98805.37;;;;-47
2021/01/30 09:29:17;;;;;;;2.49;1.55;;;;;;;18.61;48.59;98808.83;;;;-49
2021/01/30 09:32:16;;;;;;;3.13;1.73;;;;;;;18.65;48.91;98812.47;;;;-47
2021/01/30 09:35:16;;;;;;;3.94;1.92;;;;;;;18.65;48.28;98815.97;;;;-51
2021/01/30 09:38:16;;;;;;;7.39;1.91;;;;;;;18.68;48.43;98810.67;;;;-60
2021/01/30 09:41:16;;;;;;;3.09;1.87;;;;;;;18.68;48.21;98805.78;;;;-51
2021/01/30 09:44:16;;;;;;;3.06;1.87;;;;;;;18.70;48.08;98804.54;;;;-50
2021/01/30 09:47:16;;;;;;;3.27;1.90;;;;;;;18.71;48.13;98801.75;;;;-52
2021/01/30 09:50:16;;;;;;;4.71;1.84;;;;;;;18.76;48.83;98801.61;;;;-51
2021/01/30 09:53:16;;;;;;;3.86;1.79;;;;;;;18.80;49.37;98802.30;;;;-54
2021/01/30 09:56:16;;;;;;;6.38;1.97;;;;;;;18.85;48.94;98801.55;;;;-62
2021/01/30 09:59:16;;;;;;;5.91;1.95;;;;;;;18.84;48.49;98797.66;;;;-61
2021/01/30 10:02:16;;;;;;;6.79;1.94;;;;;;;18.90;48.85;98796.27;;;;-54
2021/01/30 10:05:16;;;;;;;6.89;2.08;;;;;;;18.91;48.91;98796.91;;;;-52
2021/01/30 10:08:16;;;;;;;4.39;1.71;;;;;;;18.93;49.13;98795.34;;;;-54
2021/01/30 10:11:16;;;;;;;4.24;1.64;;;;;;;18.95;48.79;98793.43;;;;-49
2021/01/30 10:14:19;;;;;;;3.75;1.75;;;;;;;18.97;49.21;98793.06;;;;-48
2021/01/30 10:17:16;;;;;;;5.28;1.63;;;;;;;18.98;48.64;98785.66;;;;-48
2021/01/30 10:20:16;;;;;;;4.03;1.83;;;;;;;19.01;49.06;98789.08;;;;-54
2021/01/30 10:23:16;;;;;;;4.53;2.00;;;;;;;19.04;48.89;98786.44;;;;-57
2021/01/30 10:26:16;;;;;;;3.23;1.75;;;;;;;19.06;48.64;98778.19;;;;-53
2021/01/30 10:29:16;;;;;;;3.04;1.69;;;;;;;19.11;48.74;98775.50;;;;-60
2021/01/30 10:32:16;;;;;;;3.67;1.61;;;;;;;19.15;48.95;98773.23;;;;-61
2021/01/30 10:35:16;;;;;;;4.32;1.69;;;;;;;19.18;49.17;98770.82;;;;-50
2021/01/30 10:38:16;;;;;;;4.90;1.80;;;;;;;19.24;49.10;98765.69;;;;-50
2021/01/30 10:41:16;;;;;;;4.13;1.73;;;;;;;19.24;48.90;98762.58;;;;-49
2021/01/30 10:44:16;;;;;;;3.42;1.62;;;;;;;19.26;48.99;98764.16;;;;-49
2021/01/30 10:47:16;;;;;;;3.30;1.67;;;;;;;19.30;49.11;98760.52;;;;-49
2021/01/30 10:50:16;;;;;;;3.68;1.66;;;;;;;19.31;49.08;98758.23;;;;-55
2021/01/30 10:53:16;;;;;;;3.16;1.61;;;;;;;19.34;49.06;98760.59;;;;-56
2021/01/30 10:56:16;;;;;;;3.56;1.80;;;;;;;19.37;49.00;98756.64;;;;-58
2021/01/30 10:59:16;;;;;;;5.39;1.62;;;;;;;19.39;49.02;98755.52;;;;-52
2021/01/30 11:02:16;;;;;;;3.43;1.65;;;;;;;19.41;48.90;98754.59;;;;-53
2021/01/30 11:05:16;;;;;;;3.45;1.76;;;;;;;19.44;48.75;98755.84;;;;-50
2021/01/30 11:08:16;;;;;;;2.81;1.67;;;;;;;19.48;48.96;98751.30;;;;-50
2021/01/30 11:11:16;;;;;;;1.96;1.55;;;;;;;19.47;48.61;98747.99;;;;-51
2021/01/30 11:14:16;;;;;;;4.53;1.72;;;;;;;19.50;48.94;98741.02;;;;-53
2021/01/30 11:17:16;;;;;;;2.39;1.49;;;;;;;19.50;48.95;98737.84;;;;-51
2021/01/30 11:20:16;;;;;;;2.85;1.77;;;;;;;19.52;49.12;98735.05;;;;-51
2021/01/30 11:23:16;;;;;;;2.52;1.65;;;;;;;19.51;48.81;98730.19;;;;-52
2021/01/30 11:26:16;;;;;;;2.87;1.37;;;;;;;19.54;48.98;98724.03;;;;-55
2021/01/30 11:29:16;;;;;;;2.22;1.61;;;;;;;19.55;49.06;98720.99;;;;-52
2021/01/30 11:32:16;;;;;;;2.79;1.57;;;;;;;19.56;49.11;98715.63;;;;-53
2021/01/30 11:35:16;;;;;;;2.26;1.46;;;;;;;19.58;49.03;98704.69;;;;-52
2021/01/30 11:38:16;;;;;;;1.95;1.37;;;;;;;19.56;48.55;98695.69;;;;-52
2021/01/30 11:41:16;;;;;;;2.33;1.39;;;;;;;19.56;48.58;98691.41;;;;-65
2021/01/30 11:44:16;;;;;;;2.06;1.45;;;;;;;19.57;48.65;98687.25;;;;-47
2021/01/30 11:47:16;;;;;;;2.45;1.49;;;;;;;19.58;48.90;98679.00;;;;-61
2021/01/30 11:50:16;;;;;;;2.25;1.52;;;;;;;19.58;48.50;98677.39;;;;-49
2021/01/30 11:53:16;;;;;;;2.11;1.42;;;;;;;19.59;48.84;98673.63;;;;-53
2021/01/30 11:56:16;;;;;;;1.94;1.49;;;;;;;19.59;48.79;98671.99;;;;-54
2021/01/30 11:59:16;;;;;;;1.88;1.37;;;;;;;19.59;48.85;98666.55;;;;-55
2021/01/30 12:02:16;;;;;;;2.37;1.57;;;;;;;19.60;48.83;98663.19;;;;-48
2021/01/30 12:05:16;;;;;;;2.66;1.41;;;;;;;19.64;48.57;98657.19;;;;-57
2021/01/30 12:08:16;;;;;;;2.08;1.46;;;;;;;19.65;48.27;98658.30;;;;-56
2021/01/30 12:11:16;;;;;;;2.23;1.42;;;;;;;19.67;48.07;98652.55;;;;-50
2021/01/30 12:14:16;;;;;;;1.89;1.46;;;;;;;19.66;48.00;98648.77;;;;-50
2021/01/30 12:17:16;;;;;;;2.15;1.50;;;;;;;19.67;47.91;98643.86;;;;-58
2021/01/30 12:20:16;;;;;;;2.08;1.35;;;;;;;19.67;47.78;98642.23;;;;-52
2021/01/30 12:23:16;;;;;;;2.50;1.40;;;;;;;19.67;47.71;98635.73;;;;-52
2021/01/30 12:26:16;;;;;;;1.72;1.41;;;;;;;19.67;47.73;98633.45;;;;-50
2021/01/30 12:29:16;;;;;;;1.79;1.39;;;;;;;19.67;47.61;98629.06;;;;-51
2021/01/30 12:32:16;;;;;;;1.37;1.21;;;;;;;19.67;47.59;98624.44;;;;-50
2021/01/30 12:35:16;;;;;;;1.63;1.41;;;;;;;19.66;47.56;98617.73;;;;-59
2021/01/30 12:38:16;;;;;;;2.13;1.47;;;;;;;19.66;47.55;98619.52;;;;-57
2021/01/30 12:41:16;;;;;;;1.35;1.24;;;;;;;19.64;47.49;98616.78;;;;-51
2021/01/30 12:44:22;;;;;;;1.83;1.45;;;;;;;19.64;47.45;98614.50;;;;-52
2021/01/30 12:47:16;;;;;;;1.60;1.23;;;;;;;19.65;47.48;98616.04;;;;-52
2021/01/30 12:50:16;;;;;;;1.80;1.40;;;;;;;19.64;47.46;98609.23;;;;-53
2021/01/30 12:53:16;;;;;;;1.67;1.32;;;;;;;19.63;47.45;98608.13;;;;-57
2021/01/30 12:56:16;;;;;;;1.39;1.11;;;;;;;19.64;47.43;98604.70;;;;-52
2021/01/30 12:59:16;;;;;;;1.86;1.27;;;;;;;19.63;47.42;98597.09;;;;-53
2021/01/30 13:02:16;;;;;;;1.30;1.20;;;;;;;19.64;47.39;98591.22;;;;-51
2021/01/30 13:05:16;;;;;;;1.65;1.35;;;;;;;19.63;47.29;98588.22;;;;-52
2021/01/30 13:08:16;;;;;;;2.73;1.34;;;;;;;19.67;47.66;98586.90;;;;-45
2021/01/30 13:11:16;;;;;;;3.29;1.30;;;;;;;19.67;47.82;98579.02;;;;-45
2021/01/30 13:14:16;;;;;;;1.73;1.25;;;;;;;19.69;47.93;98576.77;;;;-53
2021/01/30 13:17:16;;;;;;;1.90;1.35;;;;;;;19.71;48.09;98573.90;;;;-53
2021/01/30 13:20:16;;;;;;;1.47;1.29;;;;;;;19.73;48.25;98567.26;;;;-57
2021/01/30 13:23:16;;;;;;;1.41;1.20;;;;;;;19.75;48.28;98562.35;;;;-58
2021/01/30 13:26:16;;;;;;;2.39;1.32;;;;;;;19.76;48.40;98560.78;;;;-53
2021/01/30 13:29:16;;;;;;;2.22;1.39;;;;;;;19.77;48.50;98559.19;;;;-56
2021/01/30 13:32:16;;;;;;;2.69;1.27;;;;;;;19.81;48.47;98559.11;;;;-52
2021/01/30 13:35:16;;;;;;;2.09;1.31;;;;;;;19.81;48.48;98560.48;;;;-53
2021/01/30 13:38:16;;;;;;;1.53;1.32;;;;;;;19.82;48.24;98561.05;;;;-53
2021/01/30 13:41:16;;;;;;;1.75;1.33;;;;;;;19.82;48.41;98564.37;;;;-56
2021/01/30 13:44:16;;;;;;;1.67;1.20;;;;;;;19.85;48.47;98565.76;;;;-55
2021/01/30 13:47:16;;;;;;;1.84;1.48;;;;;;;19.83;48.38;98564.66;;;;-62
2021/01/30 13:50:16;;;;;;;15.83;2.30;;;;;;;19.81;48.22;98564.81;;;;-61
2021/01/30 13:53:16;;;;;;;5.93;1.68;;;;;;;19.83;48.29;98565.74;;;;-52
2021/01/30 13:56:16;;;;;;;3.97;1.60;;;;;;;19.86;48.35;98567.45;;;;-49
2021/01/30 13:59:16;;;;;;;5.24;1.67;;;;;;;19.89;48.55;98568.58;;;;-53
2021/01/30 14:02:16;;;;;;;4.23;1.55;;;;;;;19.90;48.47;98571.17;;;;-55
2021/01/30 14:05:16;;;;;;;3.72;1.45;;;;;;;19.93;48.29;98565.08;;;;-50
2021/01/30 14:08:16;;;;;;;4.11;1.38;;;;;;;19.94;48.36;98558.95;;;;-58
2021/01/30 14:11:16;;;;;;;3.03;1.50;;;;;;;19.96;48.33;98556.61;;;;-53
2021/01/30 14:14:16;;;;;;;2.35;1.40;;;;;;;19.99;48.42;98552.87;;;;-61
2021/01/30 14:17:16;;;;;;;4.04;1.37;;;;;;;19.99;47.94;98551.25;;;;-57
2021/01/30 14:20:16;;;;;;;6.25;1.50;;;;;;;19.99;47.89;98550.11;;;;-51
2021/01/30 14:23:16;;;;;;;2.89;1.40;;;;;;;20.01;48.11;98544.95;;;;-54
2021/01/30 14:26:16;;;;;;;2.65;1.49;;;;;;;20.01;48.22;98543.66;;;;-48
2021/01/30 14:29:16;;;;;;;2.12;1.31;;;;;;;20.03;48.27;98545.70;;;;-52
2021/01/30 14:32:16;;;;;;;2.70;1.44;;;;;;;20.06;48.15;98540.33;;;;-55
2021/01/30 14:35:16;;;;;;;2.51;1.37;;;;;;;20.07;48.40;98538.20;;;;-52
2021/01/30 14:38:16;;;;;;;2.48;1.45;;;;;;;20.08;48.19;98534.58;;;;-53
2021/01/30 14:41:16;;;;;;;6.02;1.79;;;;;;;20.05;47.80;98535.49;;;;-53
2021/01/30 14:44:16;;;;;;;3.13;1.51;;;;;;;20.05;47.91;98527.30;;;;-52
2021/01/30 14:47:17;;;;;;;2.78;1.44;;;;;;;20.06;47.88;98524.81;;;;-52
2021/01/30 14:50:16;;;;;;;2.89;1.54;;;;;;;20.07;47.99;98520.80;;;;-56
2021/01/30 14:53:16;;;;;;;2.98;1.61;;;;;;;20.09;47.72;98517.41;;;;-53
2021/01/30 14:56:16;;;;;;;2.48;1.56;;;;;;;20.11;47.67;98516.78;;;;-52
2021/01/30 14:59:16;;;;;;;3.34;1.41;;;;;;;20.11;47.86;98509.63;;;;-47
2021/01/30 15:02:16;;;;;;;2.32;1.49;;;;;;;20.12;48.03;98508.22;;;;-51
2021/01/30 15:05:16;;;;;;;1.71;1.28;;;;;;;20.15;47.96;98509.42;;;;-52
2021/01/30 15:08:16;;;;;;;3.33;1.51;;;;;;;20.15;48.00;98506.01;;;;-51
2021/01/30 15:11:16;;;;;;;1.64;1.40;;;;;;;20.17;48.05;98504.91;;;;-50
2021/01/30 15:14:16;;;;;;;4.44;1.41;;;;;;;20.18;48.04;98503.08;;;;-52
2021/01/30 15:17:16;;;;;;;3.55;1.33;;;;;;;20.21;48.24;98497.80;;;;-55
2021/01/30 15:20:16;;;;;;;1.41;1.27;;;;;;;20.22;48.25;98498.59;;;;-52
2021/01/30 15:23:16;;;;;;;2.75;1.34;;;;;;;20.25;48.29;98500.05;;;;-52
2021/01/30 15:26:16;;;;;;;3.06;1.33;;;;;;;20.25;48.30;98506.39;;;;-51
2021/01/30 15:29:16;;;;;;;3.49;1.46;;;;;;;20.25;48.32;98514.27;;;;-55
2021/01/30 15:32:16;;;;;;;2.53;1.44;;;;;;;20.22;47.90;98513.72;;;;-59
2021/01/30 15:35:16;;;;;;;2.40;1.51;;;;;;;20.22;48.06;98522.64;;;;-58
2021/01/30 15:38:16;;;;;;;2.40;1.50;;;;;;;20.21;47.69;98525.84;;;;-59
2021/01/30 15:41:16;;;;;;;3.39;1.40;;;;;;;20.23;47.83;98526.04;;;;-48
2021/01/30 15:44:16;;;;;;;2.31;1.40;;;;;;;20.25;48.11;98524.61;;;;-53
2021/01/30 15:47:16;;;;;;;1.83;1.47;;;;;;;20.25;48.12;98519.08;;;;-49
2021/01/30 15:50:16;;;;;;;3.25;1.53;;;;;;;20.26;48.07;98514.41;;;;-55
2021/01/30 15:53:16;;;;;;;1.68;1.30;;;;;;;20.25;48.09;98518.02;;;;-52
2021/01/30 15:56:16;;;;;;;1.85;1.37;;;;;;;20.29;48.16;98519.62;;;;-59
2021/01/30 15:59:16;;;;;;;1.59;1.29;;;;;;;20.30;48.03;98517.98;;;;-55
2021/01/30 16:02:16;;;;;;;2.51;1.39;;;;;;;20.30;48.08;98517.63;;;;-50
2021/01/30 16:05:16;;;;;;;3.73;1.20;;;;;;;20.29;47.65;98519.44;;;;-55
2021/01/30 16:08:16;;;;;;;3.45;1.29;;;;;;;20.28;47.45;98516.78;;;;-57
2021/01/30 16:11:16;;;;;;;3.00;1.31;;;;;;;20.28;47.41;98520.03;;;;-56
2021/01/30 16:14:16;;;;;;;1.57;1.20;;;;;;;20.26;47.38;98517.58;;;;-56
2021/01/30 16:17:16;;;;;;;1.91;1.29;;;;;;;20.25;47.23;98521.83;;;;-56
2021/01/30 16:20:16;;;;;;;3.13;1.33;;;;;;;20.25;47.23;98521.66;;;;-54
2021/01/30 16:23:16;;;;;;;2.25;1.20;;;;;;;20.27;47.28;98526.09;;;;-58
2021/01/30 16:26:16;;;;;;;1.38;1.21;;;;;;;20.24;47.06;98522.52;;;;-58
2021/01/30 16:29:16;;;;;;;2.30;1.35;;;;;;;20.25;47.07;98522.83;;;;-50
2021/01/30 16:32:16;;;;;;;3.16;1.42;;;;;;;20.24;47.17;98526.98;;;;-53
2021/01/30 16:35:16;;;;;;;2.84;1.30;;;;;;;20.28;47.37;98525.52;;;;-55
2021/01/30 16:38:16;;;;;;;1.31;1.21;;;;;;;20.29;47.38;98519.70;;;;-58
2021/01/30 16:41:16;;;;;;;2.35;1.27;;;;;;;20.30;47.52;98519.34;;;;-61
2021/01/30 16:44:16;;;;;;;2.62;1.20;;;;;;;20.33;47.56;98515.53;;;;-57
2021/01/30 16:47:16;;;;;;;1.58;1.21;;;;;;;20.34;47.59;98520.38;;;;-56
2021/01/30 16:50:16;;;;;;;3.83;1.31;;;;;;;20.35;47.74;98522.21;;;;-55
2021/01/30 16:53:16;;;;;;;2.58;1.31;;;;;;;20.36;47.69;98521.38;;;;-53
2021/01/30 16:56:16;;;;;;;1.26;1.16;;;;;;;20.36;47.75;98515.92;;;;-57
2021/01/30 16:59:16;;;;;;;1.29;1.19;;;;;;;20.37;47.87;98520.85;;;;-60